Airfield :
LOGIN :

Register | Disclaimer

   EN    FR    IT 

 










Legend :    VFR   Marginal VFR   IFR   Intensive IFR   Very Intensive IFR
Visi :
Ceiling :
>= 8 km
>= 3000ft
5 to 8 km
1000 to 3000 ft
1500m to 5 km
500 to 1000 ft
800 to 1500m
200 to 500 ft
< 800m
< 200 ft
Symbols :   Thunderstorms  Fog  Heavy snow  Heavy precipitations  Wind > 20 kt
SIGMETs :     Misc.  Thunderstorms  Icing  Turbulence  Mountain Waves  Volcanic Ashes






- Airport Elevation : 1079 ft


ETIK - Illesheim Air Base

METAR N/A
TAF TAF ETIK
Valid from the 21 at 23:00 until the 23 at 05:00 UTC


212308Z 2123/2305 23009KT 9999 SCT030 BKN090 QNH3036INS
BECMG 2205/2206 25012G18KT 9999 SKC QNH3028INS
BECMG 2218/2219 24015G25KT 8000 -SHRA BKN050 QNH3024INS
BECMG 2301/2302 25015G30KT 5000 -RA BKN015 QNH3016INS TX08/2216Z TN01/2204Z LAST NO AMDS AFT 2122 NEXT 2406



MET'MAP, your aeronautical weather chart ! - Copyright ORBIFLY December 2007 - Disclaimer

ORBIFLY MET'MAP TEAM :

Programming & Development : Alexandra Zaïnal
Concept & original design : Baudouin d'Aumeries
Assistance for programming : Marc-Olivier Méhu
Technical & hardware support : Manuel Goepfert

Contact : metmap@orbifly.com




SOURCES & CREDITS :

   NOAA